Angelina County Airport
KLFK : now visible

Airfield :











YOU CAN JOIN US ON...

 
LOGIN :

Register | Disclaimer

   EN    FR    IT 

 









Legend :    VFR   Marginal VFR   IFR   Intensive IFR   Very Intensive IFR
Visi :
Ceiling :
>= 8 km
>= 3000ft
5 to 8 km
1000 to 3000 ft
1500m to 5 km
500 to 1000 ft
800 to 1500m
200 to 500 ft
< 800m
< 200 ft
Symbols :   Thunderstorms  Fog  Heavy snow  Heavy precipitations  Wind > 20 kt






- Airport Elevation : 296 ft


KLFK - Angelina County

CURRENT METAR :
  • 281353Z AUTO 06003KT 5SM -RA BR BKN015 OVC050 10/09 A3004 RMK AO2 RAE30B49 SLP170 P0001 T01000089

EXPIRED METARs :
  • 281309Z AUTO 26003KT 7SM -RA OVC015 10/09 A3004 RMK AO2 P0001 T01000089
  • 281253Z AUTO 31003KT 7SM -RA OVC014 10/09 A3003 RMK AO2 RAB05 SLP166 P0000 T01000089
  • 281153Z AUTO 09003KT 8SM OVC013 10/08 A2998 RMK AO2 RAE25 SLP150 P0000 60000 T01000083 10100 20094 53003

TAF KLFK
Valid from the 28 at 12:00 until the 29 at 12:00 UTC


281121Z 2812/2912 08005KT P6SM -RA VCSH OVC013
TEMPO 2812/2815 2SM -TSRA BR OVC007CB
FM281500 16009KT 4SM -SHRA BR OVC007
FM282000 14014KT P6SM VCSH OVC007
FM290100 14012KT 5SM -SHRA BKN015
FM290500 30005KT P6SM OVC010



MET'MAP, your aeronautical weather chart ! - Copyright ORBIFLY December 2007 - Disclaimer

ORBIFLY MET'MAP TEAM :

Programming & Development : Alexandra Zaïnal
Concept & original design : Baudouin d'Aumeries
Assistance for programming : Marc-Olivier Méhu
Technical & hardware support : Manuel Goepfert

Contact : metmap@orbifly.com




SOURCES & CREDITS :

   NOAA       Earth
Advisory